Time;durP1;ratioP1;P1;durP2;ratioP2;P2;SDS_P1;SDS_P2;PMS_P1;PMS_P2;Temp;Humidity;BMP_temperature;BMP_pressure;BME280_temperature;BME280_humidity;BME280_pressure;Samples;Min_cycle;Max_cycle;Signal;HPM_P1;HPM_P2
2024/01/27 00:01:12;;;;;;;20.65;18.85;;;;;;;;;;5066873;28;20595;-83
2024/01/27 00:03:39;;;;;;;30.00;20.08;;;;;;;;;;5073529;28;20204;-84
2024/01/27 00:06:06;;;;;;;22.03;19.40;;;;;;;;;;5066451;28;20238;-85
2024/01/27 00:08:33;;;;;;;22.30;19.75;;;;;;;;;;5066590;28;20889;-85
2024/01/27 00:11:00;;;;;;;23.17;20.10;;;;;;;;;;5067227;28;20208;-84
2024/01/27 00:13:28;;;;;;;30.20;21.08;;;;;;;;;;5081044;28;20488;-83
2024/01/27 00:15:55;;;;;;;23.75;21.42;;;;;;;;;;5084840;28;20207;-84
2024/01/27 00:18:23;;;;;;;24.17;19.65;;;;;;;;;;5085593;28;20246;-84
2024/01/27 00:20:50;;;;;;;29.02;20.05;;;;;;;;;;5087483;28;20199;-85
2024/01/27 00:23:17;;;;;;;21.80;19.75;;;;;;;;;;5081572;28;20212;-84
2024/01/27 00:25:44;;;;;;;26.10;18.85;;;;;;;;;;5077926;28;20212;-84
2024/01/27 00:28:11;;;;;;;19.67;18.08;;;;;;;;;;5085426;28;20243;-84
2024/01/27 00:30:40;;;;;;;20.35;18.45;;;;;;;;;;5086634;28;20259;-84
2024/01/27 00:33:07;;;;;;;23.25;18.58;;;;;;;;;;5086768;28;20203;-83
2024/01/27 00:35:33;;;;;;;22.77;18.35;;;;;;;;;;5084588;28;20659;-83
2024/01/27 00:38:01;;;;;;;22.08;19.80;;;;;;;;;;5083390;28;20217;-83
2024/01/27 00:40:27;;;;;;;22.60;19.98;;;;;;;;;;5084743;28;20231;-84
2024/01/27 00:42:55;;;;;;;24.75;18.92;;;;;;;;;;5084693;28;20221;-84
2024/01/27 00:45:23;;;;;;;23.77;19.90;;;;;;;;;;5085262;28;20272;-84
2024/01/27 00:47:52;;;;;;;19.95;18.15;;;;;;;;;;5084411;28;20216;-84
2024/01/27 00:50:19;;;;;;;20.63;18.37;;;;;;;;;;5085335;28;20223;-84
2024/01/27 00:52:45;;;;;;;20.75;18.67;;;;;;;;;;5085041;28;20442;-84
2024/01/27 00:55:12;;;;;;;21.70;19.15;;;;;;;;;;5085221;28;20195;-84
2024/01/27 00:57:39;;;;;;;21.50;19.23;;;;;;;;;;5084506;28;20204;-83
2024/01/27 01:00:07;;;;;;;20.13;18.30;;;;;;;;;;5084779;28;20470;-85
2024/01/27 01:02:34;;;;;;;20.58;18.45;;;;;;;;;;5085235;28;20234;-84
2024/01/27 01:05:03;;;;;;;23.05;19.27;;;;;;;;;;5085164;28;20296;-84
2024/01/27 01:07:30;;;;;;;20.48;18.45;;;;;;;;;;5083927;28;20284;-83
2024/01/27 01:09:57;;;;;;;23.70;21.20;;;;;;;;;;5086018;28;20253;-84
2024/01/27 01:12:25;;;;;;;20.73;18.98;;;;;;;;;;5085337;28;20195;-83
2024/01/27 01:14:52;;;;;;;20.73;18.65;;;;;;;;;;5084777;28;20211;-84
2024/01/27 01:17:19;;;;;;;21.40;19.08;;;;;;;;;;5083443;28;20227;-84
2024/01/27 01:19:46;;;;;;;21.70;18.92;;;;;;;;;;5084411;28;20223;-84
2024/01/27 01:22:15;;;;;;;20.92;19.02;;;;;;;;;;5071898;28;20204;-84
2024/01/27 01:24:42;;;;;;;22.75;19.75;;;;;;;;;;5064603;28;20235;-83
2024/01/27 01:27:09;;;;;;;21.38;19.48;;;;;;;;;;5063540;28;20200;-83
2024/01/27 01:29:36;;;;;;;20.30;18.83;;;;;;;;;;5064822;28;20286;-84
2024/01/27 01:32:03;;;;;;;20.38;18.50;;;;;;;;;;5065062;28;20258;-85
2024/01/27 01:34:31;;;;;;;20.02;18.38;;;;;;;;;;5064031;28;20234;-84
2024/01/27 01:36:58;;;;;;;23.50;19.23;;;;;;;;;;5063636;28;20282;-84
2024/01/27 01:39:26;;;;;;;20.17;18.50;;;;;;;;;;5064098;28;20231;-84
2024/01/27 01:41:53;;;;;;;25.17;19.45;;;;;;;;;;5068188;28;20839;-83
2024/01/27 01:44:21;;;;;;;20.50;18.55;;;;;;;;;;5084685;28;20219;-84
2024/01/27 01:46:48;;;;;;;24.15;20.05;;;;;;;;;;5082987;28;20203;-84
2024/01/27 01:49:15;;;;;;;21.00;18.95;;;;;;;;;;5084779;28;20780;-84
2024/01/27 01:51:42;;;;;;;22.17;20.02;;;;;;;;;;5084252;28;20249;-83
2024/01/27 01:54:09;;;;;;;21.48;19.65;;;;;;;;;;5074073;28;20245;-84
2024/01/27 01:56:38;;;;;;;21.83;19.55;;;;;;;;;;5063741;28;20227;-83
2024/01/27 01:59:06;;;;;;;29.02;21.95;;;;;;;;;;5071852;28;20211;-83
2024/01/27 02:01:33;;;;;;;21.60;19.60;;;;;;;;;;5084102;28;20207;-84
2024/01/27 02:04:00;;;;;;;23.40;21.38;;;;;;;;;;5083636;28;20238;-84
2024/01/27 02:06:26;;;;;;;21.48;19.48;;;;;;;;;;5075932;28;20486;-83
2024/01/27 02:08:53;;;;;;;20.83;18.88;;;;;;;;;;5083070;28;20582;-83
2024/01/27 02:11:20;;;;;;;22.77;20.42;;;;;;;;;;5083952;28;20207;-84
2024/01/27 02:13:48;;;;;;;23.48;19.60;;;;;;;;;;5084407;28;20292;-84
2024/01/27 02:16:17;;;;;;;23.30;20.55;;;;;;;;;;5081289;28;20223;-83
2024/01/27 02:18:44;;;;;;;20.92;19.02;;;;;;;;;;5063286;28;20215;-84
2024/01/27 02:21:11;;;;;;;20.67;18.92;;;;;;;;;;5063366;28;20262;-83
2024/01/27 02:23:38;;;;;;;21.65;19.50;;;;;;;;;;5063478;28;20212;-84
2024/01/27 02:26:07;;;;;;;22.45;20.15;;;;;;;;;;5063159;28;20227;-85
2024/01/27 02:28:35;;;;;;;21.70;19.55;;;;;;;;;;5064148;28;20228;-84
2024/01/27 02:31:02;;;;;;;22.60;19.38;;;;;;;;;;5064490;28;20266;-85
2024/01/27 02:33:29;;;;;;;23.30;20.90;;;;;;;;;;5064003;28;20216;-83
2024/01/27 02:35:56;;;;;;;21.30;19.33;;;;;;;;;;5063177;28;20200;-84
2024/01/27 02:38:23;;;;;;;22.83;20.25;;;;;;;;;;5063726;28;20288;-84
2024/01/27 02:40:50;;;;;;;23.95;21.27;;;;;;;;;;5063719;28;20676;-84
2024/01/27 02:43:18;;;;;;;25.42;20.27;;;;;;;;;;5064289;28;20207;-84
2024/01/27 02:45:45;;;;;;;22.50;20.52;;;;;;;;;;5063310;28;20234;-84
2024/01/27 02:48:12;;;;;;;22.58;20.48;;;;;;;;;;5062253;28;20247;-83
2024/01/27 02:50:39;;;;;;;20.25;18.60;;;;;;;;;;5063460;28;20231;-83
2024/01/27 02:53:06;;;;;;;20.30;18.73;;;;;;;;;;5063883;28;20196;-83
2024/01/27 02:55:33;;;;;;;25.15;19.27;;;;;;;;;;5063673;28;20262;-83
2024/01/27 02:58:00;;;;;;;25.45;21.15;;;;;;;;;;5064298;28;20234;-83
2024/01/27 03:00:29;;;;;;;23.27;21.02;;;;;;;;;;5067419;28;20286;-84
2024/01/27 03:02:58;;;;;;;20.70;19.02;;;;;;;;;;5067225;28;20219;-84
2024/01/27 03:05:25;;;;;;;22.95;19.30;;;;;;;;;;5067070;28;20668;-84
2024/01/27 03:07:52;;;;;;;20.52;19.20;;;;;;;;;;5066263;28;20204;-84
2024/01/27 03:10:19;;;;;;;21.10;19.13;;;;;;;;;;5066906;28;20286;-83
2024/01/27 03:12:46;;;;;;;21.73;20.10;;;;;;;;;;5066785;28;20258;-84
2024/01/27 03:15:13;;;;;;;22.52;20.20;;;;;;;;;;5066564;28;20219;-83
2024/01/27 03:17:41;;;;;;;21.40;19.83;;;;;;;;;;5065652;28;20208;-84
2024/01/27 03:20:09;;;;;;;22.08;19.98;;;;;;;;;;5066247;28;20310;-83
2024/01/27 03:22:36;;;;;;;21.50;19.65;;;;;;;;;;5066601;28;20237;-83
2024/01/27 03:25:03;;;;;;;21.80;20.00;;;;;;;;;;5065874;28;20223;-82
2024/01/27 03:27:30;;;;;;;26.90;20.13;;;;;;;;;;5065733;28;20281;-83
2024/01/27 03:30:00;;;;;;;24.92;21.13;;;;;;;;;;5071140;28;20231;-82
2024/01/27 03:32:27;;;;;;;21.33;19.60;;;;;;;;;;5087154;28;20214;-83
2024/01/27 03:34:55;;;;;;;22.75;20.15;;;;;;;;;;5086844;28;20207;-84
2024/01/27 03:37:23;;;;;;;23.95;20.38;;;;;;;;;;5086404;28;20864;-83
2024/01/27 03:39:50;;;;;;;22.08;19.33;;;;;;;;;;5086421;28;20257;-82
2024/01/27 03:42:17;;;;;;;22.38;20.20;;;;;;;;;;5085678;28;20272;-83
2024/01/27 03:44:44;;;;;;;21.88;20.13;;;;;;;;;;5085203;28;20208;-84
2024/01/27 03:47:11;;;;;;;20.65;19.25;;;;;;;;;;5085027;28;20221;-84
2024/01/27 03:49:39;;;;;;;24.02;20.20;;;;;;;;;;5085441;28;20227;-85
2024/01/27 03:52:07;;;;;;;23.90;21.80;;;;;;;;;;5084954;28;20187;-83
2024/01/27 03:54:34;;;;;;;21.20;19.70;;;;;;;;;;5085169;28;20257;-84
2024/01/27 03:57:01;;;;;;;20.35;18.95;;;;;;;;;;5078900;28;20208;-83
2024/01/27 03:59:28;;;;;;;21.55;19.55;;;;;;;;;;5070818;28;20285;-83
2024/01/27 04:01:55;;;;;;;20.67;19.13;;;;;;;;;;5055381;28;20258;-83
2024/01/27 04:04:22;;;;;;;29.27;19.98;;;;;;;;;;5054904;28;20205;-83
2024/01/27 04:06:49;;;;;;;23.42;21.02;;;;;;;;;;5056372;28;20235;-83
2024/01/27 04:09:18;;;;;;;22.38;20.52;;;;;;;;;;5057511;28;20228;-83
2024/01/27 04:11:45;;;;;;;22.92;20.88;;;;;;;;;;5060968;28;20212;-83
2024/01/27 04:14:12;;;;;;;22.25;20.35;;;;;;;;;;5062334;28;20204;-83
2024/01/27 04:16:39;;;;;;;22.55;20.38;;;;;;;;;;5062382;28;20610;-83
2024/01/27 04:19:06;;;;;;;25.45;21.42;;;;;;;;;;5063661;28;20220;-84
2024/01/27 04:21:33;;;;;;;22.45;20.17;;;;;;;;;;5064426;28;20211;-83
2024/01/27 04:24:00;;;;;;;24.50;22.00;;;;;;;;;;5064308;28;20250;-84
2024/01/27 04:26:29;;;;;;;22.17;20.13;;;;;;;;;;5063762;28;20212;-84
2024/01/27 04:28:56;;;;;;;23.08;20.70;;;;;;;;;;5064251;28;20254;-82
2024/01/27 04:31:23;;;;;;;21.75;20.00;;;;;;;;;;5064486;28;20285;-83
2024/01/27 04:33:50;;;;;;;23.85;21.10;;;;;;;;;;5064489;28;20204;-83
2024/01/27 04:36:26;;;;;;;24.40;20.35;;;;;;;;;;5063510;28;20204;-83
2024/01/27 04:38:53;;;;;;;26.27;22.08;;;;;;;;;;5064311;28;20227;-83
2024/01/27 04:41:20;;;;;;;24.25;22.25;;;;;;;;;;5065200;28;20212;-84
2024/01/27 04:43:48;;;;;;;24.27;22.20;;;;;;;;;;5065320;28;20204;-84
2024/01/27 04:46:15;;;;;;;22.55;20.75;;;;;;;;;;5065394;28;20212;-84
2024/01/27 04:48:42;;;;;;;24.38;20.63;;;;;;;;;;5064672;28;20266;-84
2024/01/27 04:51:09;;;;;;;22.55;20.20;;;;;;;;;;5064783;28;20212;-83
2024/01/27 04:53:36;;;;;;;22.10;20.35;;;;;;;;;;5063944;28;20275;-83
2024/01/27 04:56:07;;;;;;;23.23;21.33;;;;;;;;;;5063777;28;20212;-84
2024/01/27 04:58:34;;;;;;;24.48;21.90;;;;;;;;;;5068767;28;20697;-84
2024/01/27 05:01:03;;;;;;;23.10;21.10;;;;;;;;;;5084998;28;20258;-83
2024/01/27 05:03:30;;;;;;;23.42;21.23;;;;;;;;;;5077298;28;20212;-83
2024/01/27 05:05:57;;;;;;;25.90;22.80;;;;;;;;;;5064967;28;20276;-84
2024/01/27 05:08:24;;;;;;;23.40;21.40;;;;;;;;;;5064390;28;20196;-84
2024/01/27 05:10:51;;;;;;;23.02;20.90;;;;;;;;;;5064940;28;20635;-83
2024/01/27 05:13:18;;;;;;;24.60;22.15;;;;;;;;;;5065705;28;20196;-84
2024/01/27 05:15:45;;;;;;;22.40;20.55;;;;;;;;;;5065378;28;20219;-82
2024/01/27 05:18:13;;;;;;;23.42;21.10;;;;;;;;;;5064189;28;20211;-83
2024/01/27 05:20:40;;;;;;;25.20;22.52;;;;;;;;;;5063871;28;20247;-83
2024/01/27 05:23:07;;;;;;;24.00;21.45;;;;;;;;;;5064957;28;20207;-83
2024/01/27 05:25:34;;;;;;;24.17;22.05;;;;;;;;;;5064355;28;20208;-83
2024/01/27 05:28:02;;;;;;;24.50;22.40;;;;;;;;;;5068113;28;20204;-84
2024/01/27 05:30:29;;;;;;;26.23;22.95;;;;;;;;;;5064354;28;20327;-84
2024/01/27 05:32:56;;;;;;;23.05;21.00;;;;;;;;;;5064255;28;20258;-83
2024/01/27 05:35:24;;;;;;;26.00;22.08;;;;;;;;;;5077115;28;20269;-83
2024/01/27 05:37:52;;;;;;;24.42;22.15;;;;;;;;;;5083731;28;20207;-83
2024/01/27 05:40:19;;;;;;;25.38;22.67;;;;;;;;;;5083880;28;20246;-84
2024/01/27 05:42:46;;;;;;;26.20;22.80;;;;;;;;;;5084442;28;20242;-83
2024/01/27 05:45:13;;;;;;;28.77;24.67;;;;;;;;;;5084356;28;20199;-82
2024/01/27 05:47:41;;;;;;;25.77;23.25;;;;;;;;;;5074254;28;20242;-83
2024/01/27 05:50:08;;;;;;;23.98;22.08;;;;;;;;;;5084966;28;20227;-84
2024/01/27 05:52:37;;;;;;;25.67;23.13;;;;;;;;;;5084386;28;20217;-83
2024/01/27 05:55:06;;;;;;;25.50;23.17;;;;;;;;;;5084478;28;20230;-83
2024/01/27 05:57:33;;;;;;;23.88;22.08;;;;;;;;;;5083947;28;20204;-83
2024/01/27 06:00:01;;;;;;;26.75;23.95;;;;;;;;;;5082088;28;20230;-83
2024/01/27 06:02:28;;;;;;;23.98;21.92;;;;;;;;;;5083177;28;20203;-83
2024/01/27 06:04:55;;;;;;;25.30;22.85;;;;;;;;;;5070959;28;20224;-83
2024/01/27 06:07:22;;;;;;;25.65;22.98;;;;;;;;;;5062899;28;20271;-83
2024/01/27 06:09:50;;;;;;;27.45;24.60;;;;;;;;;;5063417;28;20627;-83
2024/01/27 06:12:18;;;;;;;24.23;22.15;;;;;;;;;;5063242;28;20208;-83
2024/01/27 06:14:45;;;;;;;26.30;24.02;;;;;;;;;;5064053;28;20668;-83
2024/01/27 06:17:14;;;;;;;26.80;24.48;;;;;;;;;;5062866;28;20204;-83
2024/01/27 06:19:41;;;;;;;25.38;22.70;;;;;;;;;;5063254;28;20295;-83
2024/01/27 06:22:08;;;;;;;27.00;24.20;;;;;;;;;;5070937;28;20289;-83
2024/01/27 06:24:35;;;;;;;27.55;25.15;;;;;;;;;;5084258;28;20203;-83
2024/01/27 06:27:04;;;;;;;26.35;24.08;;;;;;;;;;5083378;28;20257;-83
2024/01/27 06:29:31;;;;;;;26.75;24.05;;;;;;;;;;5084166;28;20289;-84
2024/01/27 06:31:58;;;;;;;26.45;23.52;;;;;;;;;;5084574;28;20216;-83
2024/01/27 06:34:24;;;;;;;28.70;25.77;;;;;;;;;;5088163;28;20203;-84
2024/01/27 06:36:51;;;;;;;26.30;24.17;;;;;;;;;;5087789;28;20203;-83
2024/01/27 06:39:18;;;;;;;24.55;22.42;;;;;;;;;;5086739;28;20223;-84
2024/01/27 06:41:45;;;;;;;24.13;22.02;;;;;;;;;;5088009;28;20253;-83
2024/01/27 06:44:14;;;;;;;25.02;23.13;;;;;;;;;;5087756;28;20204;-83
2024/01/27 06:46:41;;;;;;;24.02;21.77;;;;;;;;;;5087249;28;20257;-83
2024/01/27 06:49:08;;;;;;;25.58;23.42;;;;;;;;;;5087594;28;20254;-83
2024/01/27 06:51:35;;;;;;;24.40;22.30;;;;;;;;;;5087290;28;20233;-83
2024/01/27 06:54:02;;;;;;;23.60;21.75;;;;;;;;;;5087942;28;20203;-84
2024/01/27 06:56:29;;;;;;;26.42;24.05;;;;;;;;;;5086883;28;20203;-83
2024/01/27 06:58:56;;;;;;;25.15;22.80;;;;;;;;;;5087059;28;20227;-83
2024/01/27 07:01:24;;;;;;;26.17;23.65;;;;;;;;;;5086076;28;20207;-83
2024/01/27 07:03:51;;;;;;;26.05;23.35;;;;;;;;;;5079072;28;20211;-82
2024/01/27 07:06:18;;;;;;;26.25;23.80;;;;;;;;;;5077999;28;20625;-80
2024/01/27 07:08:45;;;;;;;24.65;22.98;;;;;;;;;;5077747;28;20227;-81
2024/01/27 07:11:13;;;;;;;27.40;23.83;;;;;;;;;;5077509;28;20231;-80
2024/01/27 07:13:40;;;;;;;26.48;23.83;;;;;;;;;;5077463;28;20209;-81
2024/01/27 07:16:07;;;;;;;26.27;23.70;;;;;;;;;;5077576;28;20216;-81
2024/01/27 07:18:35;;;;;;;26.40;24.05;;;;;;;;;;5078041;28;20200;-80
2024/01/27 07:21:02;;;;;;;26.42;24.17;;;;;;;;;;5077799;28;20210;-81
2024/01/27 07:23:29;;;;;;;31.83;25.25;;;;;;;;;;5077890;28;20211;-81
2024/01/27 07:25:57;;;;;;;27.50;24.88;;;;;;;;;;5078445;28;20921;-83
2024/01/27 07:28:24;;;;;;;26.80;24.10;;;;;;;;;;5078346;28;20204;-82
2024/01/27 07:30:51;;;;;;;31.15;25.30;;;;;;;;;;5077693;28;20281;-81
2024/01/27 07:33:18;;;;;;;27.60;24.88;;;;;;;;;;5078653;28;20677;-81
2024/01/27 07:35:46;;;;;;;28.13;25.60;;;;;;;;;;5078853;28;20216;-81
2024/01/27 07:38:13;;;;;;;30.55;25.27;;;;;;;;;;5078694;28;20253;-82
2024/01/27 07:40:42;;;;;;;27.48;25.00;;;;;;;;;;5080465;28;20231;-81
2024/01/27 07:43:09;;;;;;;28.95;26.45;;;;;;;;;;5081361;28;20192;-81
2024/01/27 07:45:36;;;;;;;28.67;25.17;;;;;;;;;;5079244;28;20204;-80
2024/01/27 07:48:03;;;;;;;29.38;26.35;;;;;;;;;;5080360;28;20223;-79
2024/01/27 07:50:30;;;;;;;29.00;26.27;;;;;;;;;;5058479;28;20310;-79
2024/01/27 07:52:59;;;;;;;31.30;28.05;;;;;;;;;;5052684;28;20247;-78
2024/01/27 07:55:26;;;;;;;28.92;26.40;;;;;;;;;;5052770;28;20656;-78
2024/01/27 07:57:53;;;;;;;28.75;26.02;;;;;;;;;;5069974;28;20208;-79
2024/01/27 08:00:20;;;;;;;29.10;26.25;;;;;;;;;;5068583;28;20273;-77
2024/01/27 08:02:47;;;;;;;29.85;27.30;;;;;;;;;;5063721;28;20307;-80
2024/01/27 08:05:14;;;;;;;27.60;25.00;;;;;;;;;;5054540;28;20216;-76
2024/01/27 08:07:41;;;;;;;30.40;27.50;;;;;;;;;;5072058;28;20667;-78
2024/01/27 08:10:11;;;;;;;29.35;26.75;;;;;;;;;;5072632;28;20952;-77
2024/01/27 08:12:38;;;;;;;29.08;26.23;;;;;;;;;;5061629;28;20212;-79
2024/01/27 08:15:05;;;;;;;33.25;26.90;;;;;;;;;;5052726;28;20208;-78
2024/01/27 08:17:32;;;;;;;29.17;26.30;;;;;;;;;;5051552;28;20204;-80
2024/01/27 08:20:00;;;;;;;28.90;26.35;;;;;;;;;;5052045;28;20366;-78
2024/01/27 08:22:27;;;;;;;29.30;26.60;;;;;;;;;;5052314;28;20195;-77
2024/01/27 08:24:54;;;;;;;29.13;26.23;;;;;;;;;;5051445;28;20200;-78
2024/01/27 08:27:22;;;;;;;31.08;28.08;;;;;;;;;;5051542;28;20223;-78
2024/01/27 08:29:49;;;;;;;37.17;28.88;;;;;;;;;;5051632;28;20816;-78
2024/01/27 08:32:16;;;;;;;30.52;27.90;;;;;;;;;;5051940;28;20269;-78
2024/01/27 08:34:43;;;;;;;32.22;28.15;;;;;;;;;;5052102;28;20254;-78
2024/01/27 08:37:16;;;;;;;31.23;28.35;;;;;;;;;;5051607;28;20220;-78
2024/01/27 08:39:43;;;;;;;31.80;28.63;;;;;;;;;;5051401;28;20310;-78
2024/01/27 08:42:10;;;;;;;32.35;28.35;;;;;;;;;;5052499;28;20215;-78
2024/01/27 08:44:38;;;;;;;35.03;28.88;;;;;;;;;;5051964;28;20208;-78
2024/01/27 08:47:05;;;;;;;32.17;28.92;;;;;;;;;;5050997;28;20671;-78
2024/01/27 08:49:32;;;;;;;29.25;26.63;;;;;;;;;;5051289;28;20236;-78
2024/01/27 08:51:59;;;;;;;30.52;27.75;;;;;;;;;;5051518;28;20204;-78
2024/01/27 08:54:26;;;;;;;30.80;27.73;;;;;;;;;;5051819;28;20207;-77
2024/01/27 08:56:53;;;;;;;35.15;30.63;;;;;;;;;;5050699;28;20205;-77
2024/01/27 08:59:20;;;;;;;31.55;28.45;;;;;;;;;;5051006;28;20224;-77
2024/01/27 09:01:48;;;;;;;31.13;27.92;;;;;;;;;;5055125;28;20277;-80
2024/01/27 09:04:15;;;;;;;31.70;28.80;;;;;;;;;;5054836;28;20488;-78
2024/01/27 09:06:42;;;;;;;32.83;29.75;;;;;;;;;;5051654;28;20235;-79
2024/01/27 09:09:09;;;;;;;32.97;29.85;;;;;;;;;;5051730;28;20228;-78
2024/01/27 09:11:36;;;;;;;33.92;30.33;;;;;;;;;;5053382;28;20231;-80
2024/01/27 09:14:05;;;;;;;32.72;29.50;;;;;;;;;;5051810;28;20273;-79
2024/01/27 09:16:32;;;;;;;36.10;30.33;;;;;;;;;;5052773;28;20302;-82
2024/01/27 09:19:00;;;;;;;37.22;28.80;;;;;;;;;;5052082;28;20250;-77
2024/01/27 09:21:30;;;;;;;33.75;29.92;;;;;;;;;;5053232;28;20200;-79
2024/01/27 09:23:57;;;;;;;35.25;31.60;;;;;;;;;;5053355;28;20204;-79
2024/01/27 09:26:24;;;;;;;32.83;28.13;;;;;;;;;;5050891;28;20269;-80
2024/01/27 09:28:54;;;;;;;31.02;28.13;;;;;;;;;;5051542;28;20223;-80
2024/01/27 09:31:22;;;;;;;31.25;28.17;;;;;;;;;;5052043;28;20228;-79
2024/01/27 09:33:50;;;;;;;33.22;29.27;;;;;;;;;;5051862;28;20721;-77
2024/01/27 09:36:18;;;;;;;29.33;26.98;;;;;;;;;;5050213;28;20736;-74
2024/01/27 09:38:45;;;;;;;30.70;27.50;;;;;;;;;;5050866;28;20548;-76
2024/01/27 09:41:14;;;;;;;30.00;26.98;;;;;;;;;;5058739;28;20204;-75
2024/01/27 09:43:43;;;;;;;29.48;26.58;;;;;;;;;;5070440;28;20199;-77
2024/01/27 09:46:10;;;;;;;34.00;25.83;;;;;;;;;;5067358;28;20563;-78
2024/01/27 09:48:37;;;;;;;30.63;24.88;;;;;;;;;;5051941;28;20234;-79
2024/01/27 09:51:05;;;;;;;27.27;24.63;;;;;;;;;;5052158;28;20278;-79
2024/01/27 09:53:35;;;;;;;31.35;24.90;;;;;;;;;;5062477;28;20211;-78
2024/01/27 09:56:03;;;;;;;26.63;23.90;;;;;;;;;;5061443;28;20747;-80
2024/01/27 09:58:30;;;;;;;24.50;22.20;;;;;;;;;;5059009;28;20204;-81
2024/01/27 10:00:58;;;;;;;28.38;25.42;;;;;;;;;;5070631;28;20211;-78
2024/01/27 10:03:25;;;;;;;26.73;24.15;;;;;;;;;;5072532;28;20260;-78
2024/01/27 10:05:53;;;;;;;28.88;23.05;;;;;;;;;;5060618;28;20204;-78
2024/01/27 10:08:21;;;;;;;27.13;24.50;;;;;;;;;;5054373;28;20208;-79
2024/01/27 10:10:50;;;;;;;29.73;24.45;;;;;;;;;;5056800;28;20232;-83
2024/01/27 10:13:18;;;;;;;26.50;23.70;;;;;;;;;;5068294;28;20285;-84
2024/01/27 10:15:46;;;;;;;24.85;22.40;;;;;;;;;;5068370;28;20200;-85
2024/01/27 10:18:15;;;;;;;25.90;22.40;;;;;;;;;;5067300;28;20243;-85
2024/01/27 10:20:43;;;;;;;25.75;22.92;;;;;;;;;;5076248;28;20222;-84
2024/01/27 10:23:13;;;;;;;25.20;22.80;;;;;;;;;;5079464;28;20212;-84
2024/01/27 10:25:40;;;;;;;23.50;21.33;;;;;;;;;;5066443;28;20211;-85
2024/01/27 10:28:09;;;;;;;25.70;23.05;;;;;;;;;;5066343;28;20204;-85
2024/01/27 10:30:37;;;;;;;33.72;22.20;;;;;;;;;;5082039;28;20239;-85
2024/01/27 10:33:04;;;;;;;25.42;23.08;;;;;;;;;;5086547;28;20207;-86
2024/01/27 10:35:31;;;;;;;22.33;20.25;;;;;;;;;;5087922;28;20203;-85
2024/01/27 10:37:58;;;;;;;28.70;21.88;;;;;;;;;;5086891;28;20207;-87
2024/01/27 10:40:26;;;;;;;27.70;23.48;;;;;;;;;;5087133;28;20223;-86
2024/01/27 10:43:00;;;;;;;24.88;22.50;;;;;;;;;;5086857;28;20204;-85
2024/01/27 10:45:28;;;;;;;24.52;21.90;;;;;;;;;;5087590;28;20184;-85
2024/01/27 10:47:58;;;;;;;23.00;20.98;;;;;;;;;;5086916;28;20281;-86
2024/01/27 10:50:25;;;;;;;26.10;23.50;;;;;;;;;;5086070;28;20227;-86
2024/01/27 10:52:53;;;;;;;25.58;19.65;;;;;;;;;;5087959;28;20203;-86
2024/01/27 10:55:21;;;;;;;26.23;23.02;;;;;;;;;;5087058;28;20207;-86
2024/01/27 10:57:49;;;;;;;25.25;22.83;;;;;;;;;;5086887;28;20244;-85
2024/01/27 11:00:16;;;;;;;21.80;19.83;;;;;;;;;;5087963;28;20231;-86
2024/01/27 11:02:46;;;;;;;22.33;20.70;;;;;;;;;;5087617;28;20195;-86
2024/01/27 11:05:15;;;;;;;26.45;23.83;;;;;;;;;;5087746;28;20206;-85
2024/01/27 11:07:43;;;;;;;22.02;20.17;;;;;;;;;;5087055;28;20216;-85
2024/01/27 11:10:10;;;;;;;20.92;19.33;;;;;;;;;;5080348;28;20224;-86
2024/01/27 11:12:38;;;;;;;23.02;20.60;;;;;;;;;;5083633;28;20239;-86
2024/01/27 11:15:05;;;;;;;26.05;23.63;;;;;;;;;;5086671;28;20222;-86
2024/01/27 11:17:39;;;;;;;22.13;20.17;;;;;;;;;;5086171;28;20219;-86
2024/01/27 11:20:09;;;;;;;22.52;20.67;;;;;;;;;;5085521;28;20259;-86
2024/01/27 11:22:37;;;;;;;22.48;20.42;;;;;;;;;;5086013;28;20632;-87
2024/01/27 11:25:08;;;;;;;22.63;20.77;;;;;;;;;;5085803;28;20216;-85
2024/01/27 11:27:36;;;;;;;23.67;21.42;;;;;;;;;;5085432;28;20211;-87
2024/01/27 11:30:03;;;;;;;22.25;20.25;;;;;;;;;;5093825;28;20227;-84
2024/01/27 11:32:30;;;;;;;21.67;19.42;;;;;;;;;;5085423;28;20624;-85
2024/01/27 11:34:57;;;;;;;23.00;20.83;;;;;;;;;;5084240;28;20737;-85
2024/01/27 11:37:25;;;;;;;24.30;21.88;;;;;;;;;;5083781;28;20210;-85
2024/01/27 11:39:53;;;;;;;20.75;19.25;;;;;;;;;;5080412;28;20707;-86
2024/01/27 11:42:20;;;;;;;20.42;18.83;;;;;;;;;;5070528;28;20235;-85
2024/01/27 11:44:47;;;;;;;31.15;20.08;;;;;;;;;;5070236;28;20196;-80
2024/01/27 11:47:18;;;;;;;19.35;17.83;;;;;;;;;;5056549;28;20234;-83
2024/01/27 11:49:45;;;;;;;22.85;20.42;;;;;;;;;;5056673;28;20236;-85
2024/01/27 11:52:12;;;;;;;21.38;19.85;;;;;;;;;;5077125;28;20675;-82
2024/01/27 11:54:41;;;;;;;22.77;20.50;;;;;;;;;;5076575;28;20610;-77
2024/01/27 11:57:08;;;;;;;22.33;20.58;;;;;;;;;;5062016;28;20250;-80
2024/01/27 11:59:35;;;;;;;22.60;20.40;;;;;;;;;;5063595;28;20223;-78
2024/01/27 12:02:02;;;;;;;23.02;21.10;;;;;;;;;;5071106;28;20211;-81
2024/01/27 12:04:30;;;;;;;22.50;20.17;;;;;;;;;;5072353;28;20203;-78
2024/01/27 12:06:56;;;;;;;20.45;19.15;;;;;;;;;;5071577;28;20211;-78
2024/01/27 12:09:24;;;;;;;21.20;19.23;;;;;;;;;;5072378;28;20220;-78
2024/01/27 12:11:52;;;;;;;22.25;20.15;;;;;;;;;;5072396;28;20314;-79
2024/01/27 12:14:19;;;;;;;21.30;19.60;;;;;;;;;;5072052;28;20303;-79
2024/01/27 12:16:47;;;;;;;23.00;21.30;;;;;;;;;;5071684;28;20269;-79
2024/01/27 12:19:14;;;;;;;22.73;20.40;;;;;;;;;;5072361;28;20277;-79
2024/01/27 12:21:48;;;;;;;24.20;20.55;;;;;;;;;;5072155;28;20250;-79
2024/01/27 12:24:17;;;;;;;22.60;20.75;;;;;;;;;;5072273;28;20202;-78
2024/01/27 12:26:44;;;;;;;22.08;19.85;;;;;;;;;;5066418;28;20215;-78
2024/01/27 12:29:13;;;;;;;20.73;19.13;;;;;;;;;;5071719;28;20771;-79
2024/01/27 12:31:40;;;;;;;20.27;18.67;;;;;;;;;;5071884;28;20231;-78
2024/01/27 12:34:09;;;;;;;23.17;21.08;;;;;;;;;;5071897;28;20204;-78
2024/01/27 12:36:41;;;;;;;22.40;20.27;;;;;;;;;;5070902;28;20706;-79
2024/01/27 12:39:08;;;;;;;23.38;21.05;;;;;;;;;;5071735;28;20227;-79
2024/01/27 12:41:36;;;;;;;22.48;20.48;;;;;;;;;;5072024;28;20214;-78
2024/01/27 12:44:03;;;;;;;21.90;20.33;;;;;;;;;;5071670;28;20212;-78
2024/01/27 12:46:32;;;;;;;19.95;18.85;;;;;;;;;;5067906;28;20258;-78
2024/01/27 12:48:59;;;;;;;22.95;21.05;;;;;;;;;;5071715;28;20234;-77
2024/01/27 12:51:26;;;;;;;21.25;19.05;;;;;;;;;;5068637;28;20261;-77
2024/01/27 12:53:53;;;;;;;23.02;20.92;;;;;;;;;;5071671;28;20204;-78
2024/01/27 12:56:20;;;;;;;21.48;19.80;;;;;;;;;;5070916;28;20257;-78
2024/01/27 12:58:47;;;;;;;19.40;18.38;;;;;;;;;;5071491;28;20915;-78
2024/01/27 13:01:14;;;;;;;22.40;20.23;;;;;;;;;;5072009;28;20257;-78
2024/01/27 13:03:42;;;;;;;21.85;20.17;;;;;;;;;;5071654;28;20230;-79
2024/01/27 13:06:10;;;;;;;20.73;19.17;;;;;;;;;;5071433;28;20207;-78
2024/01/27 13:08:37;;;;;;;24.20;22.13;;;;;;;;;;5071974;28;20269;-79
2024/01/27 13:11:04;;;;;;;22.25;20.38;;;;;;;;;;5059967;28;20474;-78
2024/01/27 13:13:31;;;;;;;22.05;19.90;;;;;;;;;;5052077;28;20227;-78
2024/01/27 13:15:58;;;;;;;22.10;20.45;;;;;;;;;;5055833;28;20184;-79
2024/01/27 13:18:26;;;;;;;23.33;21.30;;;;;;;;;;5056638;28;20258;-79
2024/01/27 13:20:54;;;;;;;23.60;21.30;;;;;;;;;;5051117;28;20208;-78
2024/01/27 13:23:21;;;;;;;22.27;20.60;;;;;;;;;;5050599;28;20261;-78
2024/01/27 13:25:48;;;;;;;21.15;19.65;;;;;;;;;;5051758;28;20216;-78
2024/01/27 13:28:15;;;;;;;23.17;20.92;;;;;;;;;;5061676;28;20199;-78
2024/01/27 13:30:42;;;;;;;24.00;21.40;;;;;;;;;;5058890;28;20224;-81
2024/01/27 13:33:11;;;;;;;24.20;20.70;;;;;;;;;;5053734;28;20232;-79
2024/01/27 13:35:39;;;;;;;22.45;20.73;;;;;;;;;;5053635;28;20458;-81
2024/01/27 13:38:08;;;;;;;21.67;19.70;;;;;;;;;;5054510;28;20208;-84
2024/01/27 13:40:35;;;;;;;22.08;20.33;;;;;;;;;;5053718;28;20224;-79
2024/01/27 13:43:02;;;;;;;23.67;21.52;;;;;;;;;;5054376;28;20212;-84
2024/01/27 13:45:29;;;;;;;20.77;19.48;;;;;;;;;;5054427;28;20204;-78
2024/01/27 13:47:56;;;;;;;23.20;21.27;;;;;;;;;;5055889;28;20204;-85
2024/01/27 13:50:31;;;;;;;22.48;20.33;;;;;;;;;;5053804;28;20232;-81
2024/01/27 13:52:58;;;;;;;23.93;21.57;;;;;;;;;;5056860;28;20675;-81
2024/01/27 13:55:27;;;;;;;21.60;19.83;;;;;;;;;;5055883;28;20449;-83
2024/01/27 13:57:54;;;;;;;22.63;21.00;;;;;;;;;;5056832;28;20212;-82
2024/01/27 14:00:21;;;;;;;21.50;19.77;;;;;;;;;;5063285;28;20258;-84
2024/01/27 14:02:48;;;;;;;23.55;21.80;;;;;;;;;;5062094;28;20223;-82
2024/01/27 14:05:15;;;;;;;23.27;21.07;;;;;;;;;;5064557;28;20211;-81
2024/01/27 14:07:42;;;;;;;24.10;22.05;;;;;;;;;;5074470;28;20793;-83
2024/01/27 14:10:09;;;;;;;23.77;21.23;;;;;;;;;;5075546;28;20598;-83
2024/01/27 14:12:38;;;;;;;23.38;21.60;;;;;;;;;;5075620;28;20276;-80
2024/01/27 14:15:06;;;;;;;22.50;20.90;;;;;;;;;;5074203;28;20215;-82
2024/01/27 14:17:34;;;;;;;23.77;21.23;;;;;;;;;;5061225;28;20610;-85